sensor_id;sensor_type;location;lat;lon;timestamp;pressure;altitude;pressure_sealevel;temperature;humidity
28935;BME280;16044;52.726;-2.108;2023-09-08T00:01:33;100653.53;;;20.40;89.01
28935;BME280;16044;52.726;-2.108;2023-09-08T00:04:04;100647.69;;;20.36;88.92
28935;BME280;16044;52.726;-2.108;2023-09-08T00:06:38;100645.63;;;20.32;89.14
28935;BME280;16044;52.726;-2.108;2023-09-08T00:09:08;100648.88;;;20.29;89.25
28935;BME280;16044;52.726;-2.108;2023-09-08T00:11:39;100651.25;;;20.25;89.72
28935;BME280;16044;52.726;-2.108;2023-09-08T00:14:09;100655.56;;;20.21;89.60
28935;BME280;16044;52.726;-2.108;2023-09-08T00:16:40;100654.31;;;20.17;89.64
28935;BME280;16044;52.726;-2.108;2023-09-08T00:19:10;100654.81;;;20.14;89.60
28935;BME280;16044;52.726;-2.108;2023-09-08T00:21:43;100647.63;;;20.13;89.42
28935;BME280;16044;52.726;-2.108;2023-09-08T00:24:14;100648.13;;;20.10;89.77
28935;BME280;16044;52.726;-2.108;2023-09-08T00:26:44;100647.75;;;20.06;89.91
28935;BME280;16044;52.726;-2.108;2023-09-08T00:29:15;100657.88;;;20.05;90.01
28935;BME280;16044;52.726;-2.108;2023-09-08T00:31:45;100652.88;;;20.02;90.01
28935;BME280;16044;52.726;-2.108;2023-09-08T00:34:16;100647.38;;;20.02;90.15
28935;BME280;16044;52.726;-2.108;2023-09-08T00:36:49;100644.03;;;20.00;90.08
28935;BME280;16044;52.726;-2.108;2023-09-08T00:39:19;100653.19;;;19.94;90.53
28935;BME280;16044;52.726;-2.108;2023-09-08T00:41:50;100649.25;;;19.90;90.71
28935;BME280;16044;52.726;-2.108;2023-09-08T00:44:20;100659.03;;;19.86;90.60
28935;BME280;16044;52.726;-2.108;2023-09-08T00:46:51;100655.91;;;19.82;90.79
28935;BME280;16044;52.726;-2.108;2023-09-08T00:49:21;100658.88;;;19.81;90.76
28935;BME280;16044;52.726;-2.108;2023-09-08T00:51:55;100653.28;;;19.76;91.02
28935;BME280;16044;52.726;-2.108;2023-09-08T00:54:25;100668.09;;;19.75;90.60
28935;BME280;16044;52.726;-2.108;2023-09-08T00:56:56;100655.25;;;19.68;91.59
28935;BME280;16044;52.726;-2.108;2023-09-08T00:59:27;100657.63;;;19.65;91.84
28935;BME280;16044;52.726;-2.108;2023-09-08T01:01:58;100653.44;;;19.62;91.97
28935;BME280;16044;52.726;-2.108;2023-09-08T01:04:29;100643.34;;;19.56;92.09
28935;BME280;16044;52.726;-2.108;2023-09-08T01:07:03;100638.31;;;19.53;92.15
28935;BME280;16044;52.726;-2.108;2023-09-08T01:09:34;100639.59;;;19.51;92.49
28935;BME280;16044;52.726;-2.108;2023-09-08T01:12:07;100646.41;;;19.48;92.68
28935;BME280;16044;52.726;-2.108;2023-09-08T01:14:38;100646.88;;;19.45;92.91
28935;BME280;16044;52.726;-2.108;2023-09-08T01:17:08;100643.53;;;19.43;93.06
28935;BME280;16044;52.726;-2.108;2023-09-08T01:19:39;100641.25;;;19.40;93.04
28935;BME280;16044;52.726;-2.108;2023-09-08T01:22:22;100643.84;;;19.35;93.28
28935;BME280;16044;52.726;-2.108;2023-09-08T01:25:15;100641.56;;;19.32;93.55
28935;BME280;16044;52.726;-2.108;2023-09-08T01:27:50;100637.75;;;19.33;93.46
28935;BME280;16044;52.726;-2.108;2023-09-08T01:30:24;100645.38;;;19.31;93.49
28935;BME280;16044;52.726;-2.108;2023-09-08T01:32:56;100641.31;;;19.33;92.87
28935;BME280;16044;52.726;-2.108;2023-09-08T01:35:27;100646.66;;;19.28;92.93
28935;BME280;16044;52.726;-2.108;2023-09-08T01:37:58;100642.94;;;19.22;93.21
28935;BME280;16044;52.726;-2.108;2023-09-08T01:40:31;100643.63;;;19.18;93.43
28935;BME280;16044;52.726;-2.108;2023-09-08T01:43:01;100636.69;;;19.15;93.54
28935;BME280;16044;52.726;-2.108;2023-09-08T01:45:31;100637.97;;;19.13;93.46
28935;BME280;16044;52.726;-2.108;2023-09-08T01:48:02;100636.75;;;19.08;93.85
28935;BME280;16044;52.726;-2.108;2023-09-08T01:50:33;100639.75;;;19.07;93.92
28935;BME280;16044;52.726;-2.108;2023-09-08T01:53:04;100634.72;;;19.04;94.04
28935;BME280;16044;52.726;-2.108;2023-09-08T01:55:36;100626.94;;;19.01;94.11
28935;BME280;16044;52.726;-2.108;2023-09-08T01:58:07;100629.50;;;18.96;94.65
28935;BME280;16044;52.726;-2.108;2023-09-08T02:00:37;100628.91;;;18.94;94.49
28935;BME280;16044;52.726;-2.108;2023-09-08T02:03:08;100636.53;;;18.92;94.51
28935;BME280;16044;52.726;-2.108;2023-09-08T02:05:39;100635.31;;;18.87;94.91
28935;BME280;16044;52.726;-2.108;2023-09-08T02:08:10;100635.75;;;18.84;94.83
28935;BME280;16044;52.726;-2.108;2023-09-08T02:10:44;100634.53;;;18.80;95.18
28935;BME280;16044;52.726;-2.108;2023-09-08T02:13:14;100640.47;;;18.77;95.25
28935;BME280;16044;52.726;-2.108;2023-09-08T02:15:45;100640.09;;;18.74;95.68
28935;BME280;16044;52.726;-2.108;2023-09-08T02:18:15;100641.38;;;18.71;95.73
28935;BME280;16044;52.726;-2.108;2023-09-08T02:20:46;100643.72;;;18.67;95.98
28935;BME280;16044;52.726;-2.108;2023-09-08T02:23:16;100643.34;;;18.64;96.32
28935;BME280;16044;52.726;-2.108;2023-09-08T02:25:49;100635.56;;;18.61;96.32
28935;BME280;16044;52.726;-2.108;2023-09-08T02:28:19;100632.66;;;18.56;97.03
28935;BME280;16044;52.726;-2.108;2023-09-08T02:30:50;100636.88;;;18.58;96.31
28935;BME280;16044;52.726;-2.108;2023-09-08T02:33:20;100649.59;;;18.53;97.02
28935;BME280;16044;52.726;-2.108;2023-09-08T02:35:50;100651.94;;;18.49;97.19
28935;BME280;16044;52.726;-2.108;2023-09-08T02:38:21;100644.97;;;18.46;97.38
28935;BME280;16044;52.726;-2.108;2023-09-08T02:40:54;100644.84;;;18.41;97.57
28935;BME280;16044;52.726;-2.108;2023-09-08T02:43:24;100642.53;;;18.38;98.25
28935;BME280;16044;52.726;-2.108;2023-09-08T02:45:55;100638.94;;;18.38;98.17
28935;BME280;16044;52.726;-2.108;2023-09-08T02:48:25;100635.34;;;18.37;97.87
28935;BME280;16044;52.726;-2.108;2023-09-08T02:50:55;100635.34;;;18.37;97.32
28935;BME280;16044;52.726;-2.108;2023-09-08T02:53:26;100626.50;;;18.35;97.40
28935;BME280;16044;52.726;-2.108;2023-09-08T02:55:59;100634.41;;;18.25;98.70
28935;BME280;16044;52.726;-2.108;2023-09-08T02:58:32;100638.47;;;18.22;99.00
28935;BME280;16044;52.726;-2.108;2023-09-08T03:01:11;100643.09;;;18.22;98.77
28935;BME280;16044;52.726;-2.108;2023-09-08T03:03:43;100639.72;;;18.20;98.92
28935;BME280;16044;52.726;-2.108;2023-09-08T03:06:14;100638.69;;;18.21;98.58
28935;BME280;16044;52.726;-2.108;2023-09-08T03:08:45;100646.03;;;18.20;98.43
28935;BME280;16044;52.726;-2.108;2023-09-08T03:11:18;100637.88;;;18.14;99.43
28935;BME280;16044;52.726;-2.108;2023-09-08T03:13:48;100632.63;;;18.12;99.31
28935;BME280;16044;52.726;-2.108;2023-09-08T03:16:19;100631.78;;;18.11;99.34
28935;BME280;16044;52.726;-2.108;2023-09-08T03:18:49;100631.59;;;18.06;99.89
28935;BME280;16044;52.726;-2.108;2023-09-08T03:21:20;100636.25;;;18.06;99.82
28935;BME280;16044;52.726;-2.108;2023-09-08T03:23:50;100629.06;;;18.05;99.34
28935;BME280;16044;52.726;-2.108;2023-09-08T03:26:23;100631.41;;;18.01;99.62
28935;BME280;16044;52.726;-2.108;2023-09-08T03:28:53;100627.00;;;18.00;99.55
28935;BME280;16044;52.726;-2.108;2023-09-08T03:31:24;100623.03;;;17.96;99.66
28935;BME280;16044;52.726;-2.108;2023-09-08T03:33:55;100620.50;;;17.95;99.82
28935;BME280;16044;52.726;-2.108;2023-09-08T03:36:25;100625.59;;;17.91;99.93
28935;BME280;16044;52.726;-2.108;2023-09-08T03:38:55;100629.63;;;17.88;99.83
28935;BME280;16044;52.726;-2.108;2023-09-08T03:41:28;100623.53;;;17.86;99.61
28935;BME280;16044;52.726;-2.108;2023-09-08T03:43:59;100627.50;;;17.84;99.80
28935;BME280;16044;52.726;-2.108;2023-09-08T03:46:29;100621.63;;;17.80;100.00
28935;BME280;16044;52.726;-2.108;2023-09-08T03:49:00;100627.97;;;17.81;99.74
28935;BME280;16044;52.726;-2.108;2023-09-08T03:51:30;100634.50;;;17.80;99.57
28935;BME280;16044;52.726;-2.108;2023-09-08T03:54:00;100631.53;;;17.81;99.16
28935;BME280;16044;52.726;-2.108;2023-09-08T03:56:33;100634.31;;;17.74;99.76
28935;BME280;16044;52.726;-2.108;2023-09-08T03:59:04;100626.56;;;17.71;100.00
28935;BME280;16044;52.726;-2.108;2023-09-08T04:01:34;100625.69;;;17.71;99.84
28935;BME280;16044;52.726;-2.108;2023-09-08T04:04:05;100625.69;;;17.71;99.92
28935;BME280;16044;52.726;-2.108;2023-09-08T04:06:35;100626.16;;;17.68;99.93
28935;BME280;16044;52.726;-2.108;2023-09-08T04:09:06;100633.50;;;17.67;99.77
28935;BME280;16044;52.726;-2.108;2023-09-08T04:11:39;100628.69;;;17.63;99.80
28935;BME280;16044;52.726;-2.108;2023-09-08T04:14:09;100627.88;;;17.62;99.42
28935;BME280;16044;52.726;-2.108;2023-09-08T04:16:39;100631.03;;;17.59;99.54
28935;BME280;16044;52.726;-2.108;2023-09-08T04:19:10;100642.22;;;17.58;99.69
28935;BME280;16044;52.726;-2.108;2023-09-08T04:21:40;100633.59;;;17.54;99.83
28935;BME280;16044;52.726;-2.108;2023-09-08T04:24:11;100637.63;;;17.51;99.87
28935;BME280;16044;52.726;-2.108;2023-09-08T04:26:44;100637.81;;;17.50;99.65
28935;BME280;16044;52.726;-2.108;2023-09-08T04:29:17;100640.56;;;17.50;99.61
28935;BME280;16044;52.726;-2.108;2023-09-08T04:31:48;100633.84;;;17.46;99.98
28935;BME280;16044;52.726;-2.108;2023-09-08T04:34:18;100635.97;;;17.44;100.00
28935;BME280;16044;52.726;-2.108;2023-09-08T04:36:48;100640.00;;;17.41;100.00
28935;BME280;16044;52.726;-2.108;2023-09-08T04:39:19;100646.31;;;17.42;100.00
28935;BME280;16044;52.726;-2.108;2023-09-08T04:41:52;100641.66;;;17.42;100.00
28935;BME280;16044;52.726;-2.108;2023-09-08T04:44:22;100650.09;;;17.41;100.00
28935;BME280;16044;52.726;-2.108;2023-09-08T04:46:53;100651.19;;;17.40;100.00
28935;BME280;16044;52.726;-2.108;2023-09-08T04:49:23;100658.78;;;17.38;100.00
28935;BME280;16044;52.726;-2.108;2023-09-08T04:51:56;100661.72;;;17.36;100.00
28935;BME280;16044;52.726;-2.108;2023-09-08T04:54:27;100666.78;;;17.32;100.00
28935;BME280;16044;52.726;-2.108;2023-09-08T04:57:01;100671.03;;;17.28;100.00
28935;BME280;16044;52.726;-2.108;2023-09-08T04:59:48;100675.22;;;17.31;100.00
28935;BME280;16044;52.726;-2.108;2023-09-08T05:02:18;100677.34;;;17.29;100.00
28935;BME280;16044;52.726;-2.108;2023-09-08T05:04:49;100684.72;;;17.28;100.00
28935;BME280;16044;52.726;-2.108;2023-09-08T05:07:19;100674.19;;;17.25;100.00
28935;BME280;16044;52.726;-2.108;2023-09-08T05:09:50;100676.09;;;17.25;100.00
28935;BME280;16044;52.726;-2.108;2023-09-08T05:12:26;100672.53;;;17.24;100.00
28935;BME280;16044;52.726;-2.108;2023-09-08T05:14:56;100667.47;;;17.21;100.00
28935;BME280;16044;52.726;-2.108;2023-09-08T05:17:33;100666.00;;;17.19;100.00
28935;BME280;16044;52.726;-2.108;2023-09-08T05:20:05;100669.78;;;17.18;100.00
28935;BME280;16044;52.726;-2.108;2023-09-08T05:22:36;100664.78;;;17.14;100.00
28935;BME280;16044;52.726;-2.108;2023-09-08T05:25:07;100651.28;;;17.13;100.00
28935;BME280;16044;52.726;-2.108;2023-09-08T05:27:40;100656.75;;;17.13;100.00
28935;BME280;16044;52.726;-2.108;2023-09-08T05:30:13;100660.53;;;17.12;100.00
28935;BME280;16044;52.726;-2.108;2023-09-08T05:32:43;100661.63;;;17.11;100.00
28935;BME280;16044;52.726;-2.108;2023-09-08T05:35:14;100662.66;;;17.17;100.00
28935;BME280;16044;52.726;-2.108;2023-09-08T05:37:44;100667.72;;;17.13;100.00
28935;BME280;16044;52.726;-2.108;2023-09-08T05:40:15;100663.91;;;17.14;100.00
28935;BME280;16044;52.726;-2.108;2023-09-08T05:42:48;100667.72;;;17.13;100.00
28935;BME280;16044;52.726;-2.108;2023-09-08T05:45:19;100667.28;;;17.16;100.00
28935;BME280;16044;52.726;-2.108;2023-09-08T05:47:52;100673.38;;;17.18;100.00
28935;BME280;16044;52.726;-2.108;2023-09-08T05:50:23;100663.91;;;17.21;100.00
28935;BME280;16044;52.726;-2.108;2023-09-08T05:52:54;100662.41;;;17.25;100.00
28935;BME280;16044;52.726;-2.108;2023-09-08T05:55:24;100660.91;;;17.29;100.00
28935;BME280;16044;52.726;-2.108;2023-09-08T05:57:57;100671.22;;;17.33;100.00
28935;BME280;16044;52.726;-2.108;2023-09-08T06:00:27;100677.50;;;17.41;100.00
28935;BME280;16044;52.726;-2.108;2023-09-08T06:02:58;100684.25;;;17.45;100.00
28935;BME280;16044;52.726;-2.108;2023-09-08T06:05:28;100681.69;;;17.50;100.00
28935;BME280;16044;52.726;-2.108;2023-09-08T06:07:59;100693.25;;;17.52;100.00
28935;BME280;16044;52.726;-2.108;2023-09-08T06:10:33;100690.09;;;17.55;100.00
28935;BME280;16044;52.726;-2.108;2023-09-08T06:13:06;100687.34;;;17.62;100.00
28935;BME280;16044;52.726;-2.108;2023-09-08T06:15:37;100702.91;;;17.68;100.00
28935;BME280;16044;52.726;-2.108;2023-09-08T06:18:08;100707.50;;;17.74;100.00
28935;BME280;16044;52.726;-2.108;2023-09-08T06:20:44;100700.72;;;17.77;100.00
28935;BME280;16044;52.726;-2.108;2023-09-08T06:23:15;100698.19;;;17.82;100.00
28935;BME280;16044;52.726;-2.108;2023-09-08T06:25:45;100710.00;;;17.89;100.00
28935;BME280;16044;52.726;-2.108;2023-09-08T06:28:18;100707.19;;;17.96;100.00
28935;BME280;16044;52.726;-2.108;2023-09-08T06:30:48;100695.38;;;18.02;100.00
28935;BME280;16044;52.726;-2.108;2023-09-08T06:33:19;100698.25;;;18.07;100.00
28935;BME280;16044;52.726;-2.108;2023-09-08T06:35:50;100701.81;;;18.14;100.00
28935;BME280;16044;52.726;-2.108;2023-09-08T06:38:21;100699.03;;;18.21;100.00
28935;BME280;16044;52.726;-2.108;2023-09-08T06:40:51;100696.84;;;18.29;100.00
28935;BME280;16044;52.726;-2.108;2023-09-08T06:43:24;100695.34;;;18.34;100.00
28935;BME280;16044;52.726;-2.108;2023-09-08T06:45:55;100701.22;;;18.37;100.00
28935;BME280;16044;52.726;-2.108;2023-09-08T06:48:25;100703.31;;;18.42;100.00
28935;BME280;16044;52.726;-2.108;2023-09-08T06:50:56;100706.22;;;18.47;100.00
28935;BME280;16044;52.726;-2.108;2023-09-08T06:53:26;100704.31;;;18.47;100.00
28935;BME280;16044;52.726;-2.108;2023-09-08T06:55:58;100703.69;;;18.45;100.00
28935;BME280;16044;52.726;-2.108;2023-09-08T06:58:31;100697.53;;;18.50;100.00
28935;BME280;16044;52.726;-2.108;2023-09-08T07:01:02;100700.66;;;18.54;100.00
28935;BME280;16044;52.726;-2.108;2023-09-08T07:03:33;100709.28;;;18.57;100.00
28935;BME280;16044;52.726;-2.108;2023-09-08T07:06:04;100702.91;;;18.63;99.94
28935;BME280;16044;52.726;-2.108;2023-09-08T07:08:35;100702.69;;;18.65;100.00
28935;BME280;16044;52.726;-2.108;2023-09-08T07:11:05;100704.78;;;18.69;100.00
28935;BME280;16044;52.726;-2.108;2023-09-08T07:13:38;100701.94;;;18.76;100.00
28935;BME280;16044;52.726;-2.108;2023-09-08T07:16:09;100696.56;;;18.88;100.00
28935;BME280;16044;52.726;-2.108;2023-09-08T07:18:39;100703.47;;;18.97;100.00
28935;BME280;16044;52.726;-2.108;2023-09-08T07:21:10;100707.38;;;19.08;100.00
28935;BME280;16044;52.726;-2.108;2023-09-08T07:23:41;100704.47;;;19.21;100.00
28935;BME280;16044;52.726;-2.108;2023-09-08T07:26:11;100714.09;;;19.31;100.00
28935;BME280;16044;52.726;-2.108;2023-09-08T07:28:44;100706.75;;;19.43;100.00
28935;BME280;16044;52.726;-2.108;2023-09-08T07:31:15;100695.72;;;19.61;99.77
28935;BME280;16044;52.726;-2.108;2023-09-08T07:33:46;100700.03;;;19.76;99.71
28935;BME280;16044;52.726;-2.108;2023-09-08T07:36:17;100702.38;;;19.91;98.65
28935;BME280;16044;52.726;-2.108;2023-09-08T07:38:47;100702.84;;;19.99;98.69
28935;BME280;16044;52.726;-2.108;2023-09-08T07:41:17;100710.31;;;20.11;98.25
28935;BME280;16044;52.726;-2.108;2023-09-08T07:43:50;100711.88;;;20.18;97.59
28935;BME280;16044;52.726;-2.108;2023-09-08T07:46:21;100714.06;;;20.28;97.68
28935;BME280;16044;52.726;-2.108;2023-09-08T07:48:52;100715.78;;;20.41;96.71
28935;BME280;16044;52.726;-2.108;2023-09-08T07:51:22;100703.13;;;20.52;95.83
28935;BME280;16044;52.726;-2.108;2023-09-08T07:53:53;100697.75;;;20.57;95.71
28935;BME280;16044;52.726;-2.108;2023-09-08T07:56:24;100710.34;;;20.64;95.75
28935;BME280;16044;52.726;-2.108;2023-09-08T07:58:57;100710.22;;;20.71;95.40
28935;BME280;16044;52.726;-2.108;2023-09-08T08:01:27;100714.75;;;20.77;95.31
28935;BME280;16044;52.726;-2.108;2023-09-08T08:03:58;100707.00;;;20.86;95.06
28935;BME280;16044;52.726;-2.108;2023-09-08T08:06:30;100698.34;;;20.94;94.55
28935;BME280;16044;52.726;-2.108;2023-09-08T08:09:01;100694.88;;;20.99;93.93
28935;BME280;16044;52.726;-2.108;2023-09-08T08:11:32;100707.09;;;21.03;93.88
28935;BME280;16044;52.726;-2.108;2023-09-08T08:14:05;100712.25;;;21.11;93.11
28935;BME280;16044;52.726;-2.108;2023-09-08T08:16:35;100704.84;;;21.12;93.77
28935;BME280;16044;52.726;-2.108;2023-09-08T08:19:05;100712.25;;;21.23;92.96
28935;BME280;16044;52.726;-2.108;2023-09-08T08:21:36;100712.59;;;21.27;93.42
28935;BME280;16044;52.726;-2.108;2023-09-08T08:24:09;100709.81;;;21.38;92.66
28935;BME280;16044;52.726;-2.108;2023-09-08T08:26:39;100715.69;;;21.42;92.87
28935;BME280;16044;52.726;-2.108;2023-09-08T08:29:12;100716.75;;;21.53;92.23
28935;BME280;16044;52.726;-2.108;2023-09-08T08:31:43;100728.06;;;21.51;92.62
28935;BME280;16044;52.726;-2.108;2023-09-08T08:34:13;100729.19;;;21.67;92.67
28935;BME280;16044;52.726;-2.108;2023-09-08T08:36:44;100724.81;;;21.83;91.71
28935;BME280;16044;52.726;-2.108;2023-09-08T08:39:14;100720.09;;;21.95;91.17
28935;BME280;16044;52.726;-2.108;2023-09-08T08:41:44;100711.75;;;22.07;90.82
28935;BME280;16044;52.726;-2.108;2023-09-08T08:44:18;100719.97;;;22.19;90.13
28935;BME280;16044;52.726;-2.108;2023-09-08T08:46:50;100725.81;;;22.34;89.87
28935;BME280;16044;52.726;-2.108;2023-09-08T08:49:21;100732.25;;;22.57;89.34
28935;BME280;16044;52.726;-2.108;2023-09-08T08:51:53;100718.13;;;22.70;88.57
28935;BME280;16044;52.726;-2.108;2023-09-08T08:54:24;100722.38;;;22.95;88.24
28935;BME280;16044;52.726;-2.108;2023-09-08T08:56:55;100722.69;;;23.15;87.60
28935;BME280;16044;52.726;-2.108;2023-09-08T08:59:29;100716.59;;;23.35;86.51
28935;BME280;16044;52.726;-2.108;2023-09-08T09:02:02;100703.53;;;23.53;85.98
28935;BME280;16044;52.726;-2.108;2023-09-08T09:04:33;100713.44;;;23.71;85.86
28935;BME280;16044;52.726;-2.108;2023-09-08T09:07:05;100702.31;;;23.88;84.61
28935;BME280;16044;52.726;-2.108;2023-09-08T09:09:36;100705.25;;;24.03;83.78
28935;BME280;16044;52.726;-2.108;2023-09-08T09:12:07;100707.84;;;24.15;82.99
28935;BME280;16044;52.726;-2.108;2023-09-08T09:14:45;100705.19;;;24.25;80.63
28935;BME280;16044;52.726;-2.108;2023-09-08T09:17:16;100714.41;;;24.31;79.89
28935;BME280;16044;52.726;-2.108;2023-09-08T09:19:46;100717.44;;;24.35;79.37
28935;BME280;16044;52.726;-2.108;2023-09-08T09:22:20;100713.28;;;24.32;79.26
28935;BME280;16044;52.726;-2.108;2023-09-08T09:24:50;100709.72;;;24.37;79.68
28935;BME280;16044;52.726;-2.108;2023-09-08T09:27:21;100707.00;;;24.42;80.44
28935;BME280;16044;52.726;-2.108;2023-09-08T09:29:54;100716.19;;;24.47;79.84
28935;BME280;16044;52.726;-2.108;2023-09-08T09:32:24;100714.31;;;24.53;79.92
28935;BME280;16044;52.726;-2.108;2023-09-08T09:34:57;100714.06;;;24.55;79.35
28935;BME280;16044;52.726;-2.108;2023-09-08T09:37:28;100714.63;;;24.57;79.10
28935;BME280;16044;52.726;-2.108;2023-09-08T09:40:00;100727.72;;;24.61;79.16
28935;BME280;16044;52.726;-2.108;2023-09-08T09:42:34;100718.28;;;24.62;77.75
28935;BME280;16044;52.726;-2.108;2023-09-08T09:45:11;100716.56;;;24.56;76.52
28935;BME280;16044;52.726;-2.108;2023-09-08T09:47:44;100713.22;;;24.54;76.07
28935;BME280;16044;52.726;-2.108;2023-09-08T09:50:14;100710.47;;;24.54;76.50
28935;BME280;16044;52.726;-2.108;2023-09-08T09:52:45;100710.13;;;24.50;76.15
28935;BME280;16044;52.726;-2.108;2023-09-08T09:55:15;100713.16;;;24.49;76.75
28935;BME280;16044;52.726;-2.108;2023-09-08T09:57:47;100717.00;;;24.48;77.28
28935;BME280;16044;52.726;-2.108;2023-09-08T10:00:21;100715.34;;;24.47;77.48
28935;BME280;16044;52.726;-2.108;2023-09-08T10:02:52;100710.91;;;24.46;77.64
28935;BME280;16044;52.726;-2.108;2023-09-08T10:05:23;100715.09;;;24.48;78.00
28935;BME280;16044;52.726;-2.108;2023-09-08T10:07:54;100702.06;;;24.49;77.62
28935;BME280;16044;52.726;-2.108;2023-09-08T10:10:27;100707.03;;;24.47;77.44
28935;BME280;16044;52.726;-2.108;2023-09-08T10:13:02;100711.47;;;24.48;77.52
28935;BME280;16044;52.726;-2.108;2023-09-08T10:15:38;100703.16;;;24.48;77.45
28935;BME280;16044;52.726;-2.108;2023-09-08T10:18:11;100699.13;;;24.56;77.06
28935;BME280;16044;52.726;-2.108;2023-09-08T10:20:43;100704.38;;;24.57;77.35
28935;BME280;16044;52.726;-2.108;2023-09-08T10:23:23;100697.47;;;24.60;77.06
28935;BME280;16044;52.726;-2.108;2023-09-08T10:25:59;100706.66;;;24.65;77.06
28935;BME280;16044;52.726;-2.108;2023-09-08T10:28:33;100709.78;;;24.74;77.32
28935;BME280;16044;52.726;-2.108;2023-09-08T10:31:08;100705.66;;;24.77;77.10
28935;BME280;16044;52.726;-2.108;2023-09-08T10:33:42;100704.06;;;24.86;76.21
28935;BME280;16044;52.726;-2.108;2023-09-08T10:36:14;100703.53;;;24.94;76.05
28935;BME280;16044;52.726;-2.108;2023-09-08T10:38:44;100708.56;;;24.97;75.80
28935;BME280;16044;52.726;-2.108;2023-09-08T10:41:27;100708.00;;;25.00;75.65
28935;BME280;16044;52.726;-2.108;2023-09-08T10:44:02;100706.41;;;25.09;75.57
28935;BME280;16044;52.726;-2.108;2023-09-08T10:46:37;100705.31;;;25.16;73.98
28935;BME280;16044;52.726;-2.108;2023-09-08T10:49:07;100706.69;;;25.13;73.39
28935;BME280;16044;52.726;-2.108;2023-09-08T10:51:39;100708.13;;;25.21;74.16
28935;BME280;16044;52.726;-2.108;2023-09-08T10:54:11;100702.66;;;25.31;73.56
28935;BME280;16044;52.726;-2.108;2023-09-08T10:56:53;100709.34;;;25.40;73.63
28935;BME280;16044;52.726;-2.108;2023-09-08T10:59:28;100715.81;;;25.56;73.88
28935;BME280;16044;52.726;-2.108;2023-09-08T11:02:03;100715.31;;;25.70;73.03
28935;BME280;16044;52.726;-2.108;2023-09-08T11:04:34;100711.47;;;25.81;72.21
28935;BME280;16044;52.726;-2.108;2023-09-08T11:07:05;100719.00;;;25.91;72.01
28935;BME280;16044;52.726;-2.108;2023-09-08T11:09:37;100714.59;;;26.00;70.71
28935;BME280;16044;52.726;-2.108;2023-09-08T11:12:07;100717.38;;;26.10;70.94
28935;BME280;16044;52.726;-2.108;2023-09-08T11:14:38;100710.19;;;26.24;71.97
28935;BME280;16044;52.726;-2.108;2023-09-08T11:17:10;100721.31;;;26.40;71.37
28935;BME280;16044;52.726;-2.108;2023-09-08T11:19:45;100714.38;;;26.48;70.14
28935;BME280;16044;52.726;-2.108;2023-09-08T11:22:18;100718.00;;;26.58;70.18
28935;BME280;16044;52.726;-2.108;2023-09-08T11:24:48;100718.84;;;26.64;68.70
28935;BME280;16044;52.726;-2.108;2023-09-08T11:27:20;100723.56;;;26.69;69.24
28935;BME280;16044;52.726;-2.108;2023-09-08T11:29:51;100710.50;;;26.74;69.30
28935;BME280;16044;52.726;-2.108;2023-09-08T11:32:24;100704.94;;;26.79;68.89
28935;BME280;16044;52.726;-2.108;2023-09-08T11:34:54;100720.22;;;26.82;68.02
28935;BME280;16044;52.726;-2.108;2023-09-08T11:37:25;100720.78;;;26.89;68.50
28935;BME280;16044;52.726;-2.108;2023-09-08T11:39:55;100719.63;;;26.95;67.65
28935;BME280;16044;52.726;-2.108;2023-09-08T11:42:27;100707.13;;;26.98;67.77
28935;BME280;16044;52.726;-2.108;2023-09-08T11:44:58;100701.84;;;27.01;68.11
28935;BME280;16044;52.726;-2.108;2023-09-08T11:47:33;100696.81;;;27.09;67.60
28935;BME280;16044;52.726;-2.108;2023-09-08T11:50:05;100690.69;;;27.12;66.65
28935;BME280;16044;52.726;-2.108;2023-09-08T11:52:37;100695.97;;;27.13;65.45
28935;BME280;16044;52.726;-2.108;2023-09-08T11:55:08;100703.44;;;27.23;66.58
28935;BME280;16044;52.726;-2.108;2023-09-08T11:57:40;100703.69;;;27.42;66.07
28935;BME280;16044;52.726;-2.108;2023-09-08T12:00:12;100708.66;;;27.55;65.25
28935;BME280;16044;52.726;-2.108;2023-09-08T12:02:47;100703.03;;;27.66;64.72
28935;BME280;16044;52.726;-2.108;2023-09-08T12:05:21;100694.06;;;27.79;64.82
28935;BME280;16044;52.726;-2.108;2023-09-08T12:07:54;100693.19;;;27.89;64.19
28935;BME280;16044;52.726;-2.108;2023-09-08T12:10:25;100697.03;;;27.98;64.01
28935;BME280;16044;52.726;-2.108;2023-09-08T12:12:56;100694.75;;;28.05;64.05
28935;BME280;16044;52.726;-2.108;2023-09-08T12:15:30;100679.66;;;28.11;63.52
28935;BME280;16044;52.726;-2.108;2023-09-08T12:18:06;100676.53;;;28.18;63.44
28935;BME280;16044;52.726;-2.108;2023-09-08T12:20:39;100677.63;;;28.22;62.67
28935;BME280;16044;52.726;-2.108;2023-09-08T12:23:16;100676.75;;;28.27;62.66
28935;BME280;16044;52.726;-2.108;2023-09-08T12:25:49;100677.56;;;28.32;63.77
28935;BME280;16044;52.726;-2.108;2023-09-08T12:28:21;100675.56;;;28.38;62.94
28935;BME280;16044;52.726;-2.108;2023-09-08T12:30:52;100675.19;;;28.45;62.76
28935;BME280;16044;52.726;-2.108;2023-09-08T12:33:26;100670.16;;;28.47;62.19
28935;BME280;16044;52.726;-2.108;2023-09-08T12:35:56;100674.34;;;28.49;61.71
28935;BME280;16044;52.726;-2.108;2023-09-08T12:38:31;100677.66;;;28.51;61.63
28935;BME280;16044;52.726;-2.108;2023-09-08T12:41:01;100672.63;;;28.58;61.93
28935;BME280;16044;52.726;-2.108;2023-09-08T12:43:32;100668.94;;;28.63;61.38
28935;BME280;16044;52.726;-2.108;2023-09-08T12:46:02;100675.00;;;28.70;61.39
28935;BME280;16044;52.726;-2.108;2023-09-08T12:48:35;100671.47;;;28.60;59.83
28935;BME280;16044;52.726;-2.108;2023-09-08T12:51:05;100670.88;;;28.68;59.74
28935;BME280;16044;52.726;-2.108;2023-09-08T12:53:36;100666.34;;;28.72;59.87
28935;BME280;16044;52.726;-2.108;2023-09-08T12:56:06;100667.66;;;28.80;60.00
28935;BME280;16044;52.726;-2.108;2023-09-08T12:58:37;100665.03;;;28.88;60.18
28935;BME280;16044;52.726;-2.108;2023-09-08T13:01:07;100665.03;;;28.88;59.81